sensor_id;sensor_type;location;lat;lon;timestamp;pressure;altitude;pressure_sealevel;temperature;humidity
65997;BME280;52765;52.258;21.052;2022-10-16T00:01:51;100711.38;;;14.77;91.76
65997;BME280;52765;52.258;21.052;2022-10-16T00:04:16;100733.19;;;14.92;92.06
65997;BME280;52765;52.258;21.052;2022-10-16T00:06:43;100733.03;;;14.93;91.82
65997;BME280;52765;52.258;21.052;2022-10-16T00:09:10;100739.13;;;14.95;92.01
65997;BME280;52765;52.258;21.052;2022-10-16T00:11:38;100743.53;;;14.96;91.79
65997;BME280;52765;52.258;21.052;2022-10-16T00:14:10;100731.84;;;14.96;91.58
65997;BME280;52765;52.258;21.052;2022-10-16T00:16:37;100716.13;;;14.83;91.64
65997;BME280;52765;52.258;21.052;2022-10-16T00:19:04;100723.03;;;14.94;91.50
65997;BME280;52765;52.258;21.052;2022-10-16T00:21:31;100732.00;;;14.94;91.60
65997;BME280;52765;52.258;21.052;2022-10-16T00:24:02;100732.50;;;14.98;91.34
65997;BME280;52765;52.258;21.052;2022-10-16T00:26:30;100729.63;;;14.99;91.03
65997;BME280;52765;52.258;21.052;2022-10-16T00:28:57;100713.72;;;14.88;91.19
65997;BME280;52765;52.258;21.052;2022-10-16T00:31:23;100735.22;;;14.98;91.27
65997;BME280;52765;52.258;21.052;2022-10-16T00:33:48;100713.59;;;14.82;91.27
65997;BME280;52765;52.258;21.052;2022-10-16T00:36:18;100737.94;;;14.98;91.15
65997;BME280;52765;52.258;21.052;2022-10-16T00:38:44;100750.00;;;14.95;91.06
65997;BME280;52765;52.258;21.052;2022-10-16T00:41:13;100745.41;;;14.96;90.89
65997;BME280;52765;52.258;21.052;2022-10-16T00:46:37;100730.69;;;14.82;91.01
65997;BME280;52765;52.258;21.052;2022-10-16T00:51:33;100730.91;;;14.80;91.92
65997;BME280;52765;52.258;21.052;2022-10-16T00:54:00;100750.72;;;14.81;92.99
65997;BME280;52765;52.258;21.052;2022-10-16T00:56:27;100753.94;;;14.76;94.16
65997;BME280;52765;52.258;21.052;2022-10-16T00:58:54;100755.81;;;14.76;94.70
65997;BME280;52765;52.258;21.052;2022-10-16T01:01:19;100754.47;;;14.72;95.61
65997;BME280;52765;52.258;21.052;2022-10-16T01:03:45;100741.63;;;14.66;96.09
65997;BME280;52765;52.258;21.052;2022-10-16T01:06:24;100758.03;;;14.72;96.25
65997;BME280;52765;52.258;21.052;2022-10-16T01:11:34;100771.06;;;14.69;96.04
65997;BME280;52765;52.258;21.052;2022-10-16T01:14:11;100742.63;;;14.48;96.61
65997;BME280;52765;52.258;21.052;2022-10-16T01:17:06;100752.78;;;14.54;96.36
65997;BME280;52765;52.258;21.052;2022-10-16T01:19:58;100771.28;;;14.67;96.29
65997;BME280;52765;52.258;21.052;2022-10-16T01:22:36;100739.59;;;14.51;96.04
65997;BME280;52765;52.258;21.052;2022-10-16T01:25:05;100765.84;;;14.67;96.74
65997;BME280;52765;52.258;21.052;2022-10-16T01:27:36;100767.03;;;14.65;96.74
65997;BME280;52765;52.258;21.052;2022-10-16T01:30:15;100774.66;;;14.69;96.63
65997;BME280;52765;52.258;21.052;2022-10-16T01:32:50;100769.06;;;14.71;96.24
65997;BME280;52765;52.258;21.052;2022-10-16T01:40:18;100770.91;;;14.62;96.48
65997;BME280;52765;52.258;21.052;2022-10-16T01:42:49;100761.94;;;14.53;96.38
65997;BME280;52765;52.258;21.052;2022-10-16T01:45:17;100768.22;;;14.62;96.22
65997;BME280;52765;52.258;21.052;2022-10-16T01:47:45;100768.59;;;14.59;96.29
65997;BME280;52765;52.258;21.052;2022-10-16T01:50:14;100776.88;;;14.66;96.55
65997;BME280;52765;52.258;21.052;2022-10-16T01:52:43;100796.16;;;14.71;96.27
65997;BME280;52765;52.258;21.052;2022-10-16T01:55:12;100800.22;;;14.75;96.31
65997;BME280;52765;52.258;21.052;2022-10-16T01:57:41;100760.59;;;14.57;96.43
65997;BME280;52765;52.258;21.052;2022-10-16T02:00:11;100770.75;;;14.64;96.82
65997;BME280;52765;52.258;21.052;2022-10-16T02:02:40;100779.41;;;14.67;97.37
65997;BME280;52765;52.258;21.052;2022-10-16T02:07:45;100780.41;;;14.66;99.09
65997;BME280;52765;52.258;21.052;2022-10-16T02:10:11;100771.44;;;14.57;99.72
65997;BME280;52765;52.258;21.052;2022-10-16T02:12:38;100775.81;;;14.58;100.00
65997;BME280;52765;52.258;21.052;2022-10-16T02:15:06;100771.78;;;14.54;99.91
65997;BME280;52765;52.258;21.052;2022-10-16T02:17:32;100780.06;;;14.53;100.00
65997;BME280;52765;52.258;21.052;2022-10-16T02:19:58;100769.06;;;14.46;100.00
65997;BME280;52765;52.258;21.052;2022-10-16T02:22:36;100778.88;;;14.55;100.00
65997;BME280;52765;52.258;21.052;2022-10-16T02:25:10;100755.19;;;14.41;99.92
65997;BME280;52765;52.258;21.052;2022-10-16T02:27:53;100778.03;;;14.55;99.72
65997;BME280;52765;52.258;21.052;2022-10-16T02:30:29;100755.38;;;14.39;100.00
65997;BME280;52765;52.258;21.052;2022-10-16T02:32:59;100764.00;;;14.43;100.00
65997;BME280;52765;52.258;21.052;2022-10-16T02:35:28;100751.28;;;14.27;100.00
65997;BME280;52765;52.258;21.052;2022-10-16T02:37:55;100778.56;;;14.42;100.00
65997;BME280;52765;52.258;21.052;2022-10-16T02:40:22;100776.53;;;14.44;100.00
65997;BME280;52765;52.258;21.052;2022-10-16T02:42:51;100779.25;;;14.44;100.00
65997;BME280;52765;52.258;21.052;2022-10-16T02:45:17;100768.41;;;14.28;100.00
65997;BME280;52765;52.258;21.052;2022-10-16T02:47:43;100778.22;;;14.37;100.00
65997;BME280;52765;52.258;21.052;2022-10-16T02:50:09;100772.63;;;14.30;100.00
65997;BME280;52765;52.258;21.052;2022-10-16T02:52:34;100779.44;;;14.34;100.00
65997;BME280;52765;52.258;21.052;2022-10-16T02:55:00;100773.84;;;14.28;100.00
65997;BME280;52765;52.258;21.052;2022-10-16T02:57:26;100763.34;;;14.24;100.00
65997;BME280;52765;52.258;21.052;2022-10-16T02:59:51;100769.44;;;14.18;100.00
65997;BME280;52765;52.258;21.052;2022-10-16T03:02:17;100780.09;;;14.28;100.00
65997;BME280;52765;52.258;21.052;2022-10-16T03:04:42;100781.97;;;14.28;100.00
65997;BME280;52765;52.258;21.052;2022-10-16T03:07:08;100780.94;;;14.20;100.00
65997;BME280;52765;52.258;21.052;2022-10-16T03:09:33;100789.22;;;14.27;100.00
65997;BME280;52765;52.258;21.052;2022-10-16T03:11:59;100795.69;;;14.26;100.00
65997;BME280;52765;52.258;21.052;2022-10-16T03:14:24;100789.78;;;14.22;100.00
65997;BME280;52765;52.258;21.052;2022-10-16T03:16:50;100779.59;;;14.08;100.00
65997;BME280;52765;52.258;21.052;2022-10-16T03:19:16;100802.97;;;14.17;100.00
65997;BME280;52765;52.258;21.052;2022-10-16T03:21:42;100798.22;;;14.11;100.00
65997;BME280;52765;52.258;21.052;2022-10-16T03:24:08;100810.06;;;14.18;100.00
65997;BME280;52765;52.258;21.052;2022-10-16T03:26:33;100790.78;;;14.05;100.00
65997;BME280;52765;52.258;21.052;2022-10-16T03:28:59;100797.22;;;14.04;100.00
65997;BME280;52765;52.258;21.052;2022-10-16T03:31:24;100814.16;;;14.14;100.00
65997;BME280;52765;52.258;21.052;2022-10-16T03:33:50;100808.91;;;14.13;100.00
65997;BME280;52765;52.258;21.052;2022-10-16T03:36:15;100811.78;;;14.11;100.00
65997;BME280;52765;52.258;21.052;2022-10-16T03:38:41;100811.44;;;14.14;100.00
65997;BME280;52765;52.258;21.052;2022-10-16T03:41:06;100818.19;;;14.18;100.00
65997;BME280;52765;52.258;21.052;2022-10-16T03:43:33;100812.13;;;14.16;100.00
65997;BME280;52765;52.258;21.052;2022-10-16T03:45:58;100824.28;;;14.20;100.00
65997;BME280;52765;52.258;21.052;2022-10-16T03:48:24;100821.09;;;14.25;100.00
65997;BME280;52765;52.258;21.052;2022-10-16T03:50:49;100822.28;;;14.22;100.00
65997;BME280;52765;52.258;21.052;2022-10-16T03:53:16;100815.00;;;14.23;100.00
65997;BME280;52765;52.258;21.052;2022-10-16T03:55:43;100792.63;;;14.04;100.00
65997;BME280;52765;52.258;21.052;2022-10-16T03:58:08;100810.78;;;14.12;100.00
65997;BME280;52765;52.258;21.052;2022-10-16T04:00:34;100834.78;;;14.23;100.00
65997;BME280;52765;52.258;21.052;2022-10-16T04:03:00;100816.00;;;14.14;100.00
65997;BME280;52765;52.258;21.052;2022-10-16T04:05:26;100810.41;;;14.07;100.00
65997;BME280;52765;52.258;21.052;2022-10-16T04:07:52;100805.84;;;13.99;100.00
65997;BME280;52765;52.258;21.052;2022-10-16T04:10:17;100798.56;;;13.92;100.00
65997;BME280;52765;52.258;21.052;2022-10-16T04:12:44;100811.75;;;13.95;100.00
65997;BME280;52765;52.258;21.052;2022-10-16T04:15:09;100800.06;;;13.86;100.00
65997;BME280;52765;52.258;21.052;2022-10-16T04:17:35;100800.25;;;13.84;100.00
65997;BME280;52765;52.258;21.052;2022-10-16T04:20:00;100795.66;;;13.77;100.00
65997;BME280;52765;52.258;21.052;2022-10-16T04:22:26;100820.72;;;13.87;100.00
65997;BME280;52765;52.258;21.052;2022-10-16T04:24:51;100822.75;;;13.85;100.00
65997;BME280;52765;52.258;21.052;2022-10-16T04:27:17;100832.41;;;13.87;100.00
65997;BME280;52765;52.258;21.052;2022-10-16T04:29:42;100829.88;;;13.86;100.00
65997;BME280;52765;52.258;21.052;2022-10-16T04:32:09;100825.78;;;13.82;100.00
65997;BME280;52765;52.258;21.052;2022-10-16T04:34:40;100798.66;;;13.65;100.00
65997;BME280;52765;52.258;21.052;2022-10-16T04:37:06;100825.94;;;13.80;100.00
65997;BME280;52765;52.258;21.052;2022-10-16T04:39:31;100821.72;;;13.78;100.00
65997;BME280;52765;52.258;21.052;2022-10-16T04:41:56;100813.59;;;13.78;100.00
65997;BME280;52765;52.258;21.052;2022-10-16T04:44:22;100836.78;;;13.88;100.00
65997;BME280;52765;52.258;21.052;2022-10-16T04:46:50;100839.66;;;13.87;100.00
65997;BME280;52765;52.258;21.052;2022-10-16T04:49:16;100830.69;;;13.78;100.00
65997;BME280;52765;52.258;21.052;2022-10-16T04:51:41;100831.19;;;13.74;100.00
65997;BME280;52765;52.258;21.052;2022-10-16T04:54:09;100823.75;;;13.67;100.00
65997;BME280;52765;52.258;21.052;2022-10-16T04:56:35;100842.56;;;13.77;100.00
65997;BME280;52765;52.258;21.052;2022-10-16T04:59:07;100844.38;;;13.77;100.00
65997;BME280;52765;52.258;21.052;2022-10-16T05:01:33;100851.34;;;13.79;100.00
65997;BME280;52765;52.258;21.052;2022-10-16T05:03:59;100848.81;;;13.78;100.00
65997;BME280;52765;52.258;21.052;2022-10-16T05:06:24;100848.97;;;13.76;100.00
65997;BME280;52765;52.258;21.052;2022-10-16T05:08:49;100855.38;;;13.75;100.00
65997;BME280;52765;52.258;21.052;2022-10-16T05:11:16;100861.66;;;13.76;100.00
65997;BME280;52765;52.258;21.052;2022-10-16T05:13:42;100847.06;;;13.60;100.00
65997;BME280;52765;52.258;21.052;2022-10-16T05:16:07;100867.91;;;13.68;100.00
65997;BME280;52765;52.258;21.052;2022-10-16T05:18:33;100859.94;;;13.66;100.00
65997;BME280;52765;52.258;21.052;2022-10-16T05:20:58;100875.19;;;13.67;100.00
65997;BME280;52765;52.258;21.052;2022-10-16T05:23:24;100876.38;;;13.73;100.00
65997;BME280;52765;52.258;21.052;2022-10-16T05:25:54;100871.63;;;13.75;100.00
65997;BME280;52765;52.258;21.052;2022-10-16T05:28:21;100863.84;;;13.72;100.00
65997;BME280;52765;52.258;21.052;2022-10-16T05:30:46;100849.28;;;13.65;100.00
65997;BME280;52765;52.258;21.052;2022-10-16T05:33:17;100863.84;;;13.72;100.00
65997;BME280;52765;52.258;21.052;2022-10-16T05:35:44;100888.56;;;13.85;100.00
65997;BME280;52765;52.258;21.052;2022-10-16T05:38:10;100872.34;;;13.77;100.00
65997;BME280;52765;52.258;21.052;2022-10-16T05:40:38;100880.66;;;13.84;100.00
65997;BME280;52765;52.258;21.052;2022-10-16T05:43:04;100876.91;;;13.85;100.00
65997;BME280;52765;52.258;21.052;2022-10-16T05:45:29;100870.47;;;13.78;100.00
65997;BME280;52765;52.258;21.052;2022-10-16T05:47:55;100877.75;;;13.85;100.00
65997;BME280;52765;52.258;21.052;2022-10-16T05:50:20;100867.59;;;13.79;99.97
65997;BME280;52765;52.258;21.052;2022-10-16T05:52:46;100881.47;;;13.84;100.00
65997;BME280;52765;52.258;21.052;2022-10-16T05:55:14;100892.50;;;13.91;99.84
65997;BME280;52765;52.258;21.052;2022-10-16T05:57:40;100857.41;;;13.73;99.74
65997;BME280;52765;52.258;21.052;2022-10-16T06:00:06;100862.16;;;13.71;99.48
65997;BME280;52765;52.258;21.052;2022-10-16T06:02:32;100891.28;;;13.85;99.66
65997;BME280;52765;52.258;21.052;2022-10-16T06:04:58;100890.78;;;13.82;99.56
65997;BME280;52765;52.258;21.052;2022-10-16T06:07:23;100900.94;;;13.88;99.49
65997;BME280;52765;52.258;21.052;2022-10-16T06:09:50;100904.88;;;14.02;99.15
65997;BME280;52765;52.258;21.052;2022-10-16T06:12:16;100915.72;;;14.10;98.27
65997;BME280;52765;52.258;21.052;2022-10-16T06:14:41;100882.00;;;13.96;97.86
65997;BME280;52765;52.258;21.052;2022-10-16T06:17:07;100904.88;;;14.10;97.78
65997;BME280;52765;52.258;21.052;2022-10-16T06:19:32;100917.28;;;14.21;97.81
65997;BME280;52765;52.258;21.052;2022-10-16T06:21:58;100904.56;;;14.13;97.47
65997;BME280;52765;52.258;21.052;2022-10-16T06:24:24;100926.09;;;14.23;97.56
65997;BME280;52765;52.258;21.052;2022-10-16T06:26:50;100911.00;;;14.20;97.16
65997;BME280;52765;52.258;21.052;2022-10-16T06:29:15;100902.69;;;14.22;97.07
65997;BME280;52765;52.258;21.052;2022-10-16T06:31:41;100915.59;;;14.36;96.76
65997;BME280;52765;52.258;21.052;2022-10-16T06:34:09;100917.16;;;14.39;96.69
65997;BME280;52765;52.258;21.052;2022-10-16T06:36:36;100911.53;;;14.40;96.19
65997;BME280;52765;52.258;21.052;2022-10-16T06:39:02;100911.72;;;14.47;95.80
65997;BME280;52765;52.258;21.052;2022-10-16T06:41:28;100925.81;;;14.59;95.59
65997;BME280;52765;52.258;21.052;2022-10-16T06:43:54;100920.72;;;14.56;94.96
65997;BME280;52765;52.258;21.052;2022-10-16T06:46:24;100926.00;;;14.66;94.80
65997;BME280;52765;52.258;21.052;2022-10-16T06:48:49;100935.97;;;14.73;94.37
65997;BME280;52765;52.258;21.052;2022-10-16T06:51:17;100937.69;;;14.91;93.76
65997;BME280;52765;52.258;21.052;2022-10-16T06:53:45;100941.88;;;15.02;93.20
65997;BME280;52765;52.258;21.052;2022-10-16T06:56:14;100917.81;;;14.98;92.48
65997;BME280;52765;52.258;21.052;2022-10-16T06:58:40;100928.13;;;15.11;91.99
65997;BME280;52765;52.258;21.052;2022-10-16T07:01:06;100917.97;;;15.05;91.66
65997;BME280;52765;52.258;21.052;2022-10-16T07:03:32;100944.41;;;15.28;91.49
65997;BME280;52765;52.258;21.052;2022-10-16T07:06:02;100941.84;;;15.34;91.11
65997;BME280;52765;52.258;21.052;2022-10-16T07:08:31;100931.97;;;15.33;90.25
65997;BME280;52765;52.258;21.052;2022-10-16T07:11:01;100936.06;;;15.38;90.34
65997;BME280;52765;52.258;21.052;2022-10-16T07:13:27;100951.75;;;15.59;90.21
65997;BME280;52765;52.258;21.052;2022-10-16T07:15:53;100956.69;;;15.55;89.36
65997;BME280;52765;52.258;21.052;2022-10-16T07:18:18;100942.81;;;15.42;89.72
65997;BME280;52765;52.258;21.052;2022-10-16T07:20:44;100967.72;;;15.53;90.42
65997;BME280;52765;52.258;21.052;2022-10-16T07:23:10;100960.47;;;15.46;89.81
65997;BME280;52765;52.258;21.052;2022-10-16T07:25:35;100966.06;;;15.52;89.59
65997;BME280;52765;52.258;21.052;2022-10-16T07:28:01;100967.22;;;15.58;89.58
65997;BME280;52765;52.258;21.052;2022-10-16T07:30:26;100951.28;;;15.47;89.46
65997;BME280;52765;52.258;21.052;2022-10-16T07:32:52;100962.41;;;15.68;89.72
65997;BME280;52765;52.258;21.052;2022-10-16T07:35:17;100959.00;;;15.75;88.88
65997;BME280;52765;52.258;21.052;2022-10-16T07:37:46;100947.97;;;15.84;88.66
65997;BME280;52765;52.258;21.052;2022-10-16T07:40:11;100951.66;;;15.91;88.07
65997;BME280;52765;52.258;21.052;2022-10-16T07:42:37;100923.03;;;15.81;87.28
65997;BME280;52765;52.258;21.052;2022-10-16T07:45:06;100935.81;;;16.03;87.23
65997;BME280;52765;52.258;21.052;2022-10-16T07:47:31;100925.28;;;16.00;86.89
65997;BME280;52765;52.258;21.052;2022-10-16T07:49:57;100937.53;;;16.27;86.41
65997;BME280;52765;52.258;21.052;2022-10-16T07:52:22;100930.94;;;16.45;85.52
65997;BME280;52765;52.258;21.052;2022-10-16T07:54:48;100932.88;;;16.59;84.85
65997;BME280;52765;52.258;21.052;2022-10-16T07:57:13;100912.75;;;16.69;83.94
65997;BME280;52765;52.258;21.052;2022-10-16T07:59:46;100932.03;;;16.82;83.56
65997;BME280;52765;52.258;21.052;2022-10-16T08:02:13;100932.28;;;16.72;83.80
65997;BME280;52765;52.258;21.052;2022-10-16T08:04:38;100946.13;;;16.86;84.12
65997;BME280;52765;52.258;21.052;2022-10-16T08:07:07;100937.22;;;16.92;83.56
65997;BME280;52765;52.258;21.052;2022-10-16T08:09:32;100938.63;;;16.88;83.41
65997;BME280;52765;52.258;21.052;2022-10-16T08:11:58;100960.31;;;16.96;83.97
65997;BME280;52765;52.258;21.052;2022-10-16T08:14:23;100960.63;;;17.01;83.52
65997;BME280;52765;52.258;21.052;2022-10-16T08:16:49;100952.84;;;17.13;83.29
65997;BME280;52765;52.258;21.052;2022-10-16T08:19:14;100959.16;;;17.28;82.03
65997;BME280;52765;52.258;21.052;2022-10-16T08:21:41;100953.59;;;17.22;81.46
65997;BME280;52765;52.258;21.052;2022-10-16T08:24:07;100964.59;;;17.28;81.80
65997;BME280;52765;52.258;21.052;2022-10-16T08:26:32;100955.78;;;17.26;81.40
65997;BME280;52765;52.258;21.052;2022-10-16T08:28:58;100974.38;;;17.37;81.31
65997;BME280;52765;52.258;21.052;2022-10-16T08:31:24;100954.38;;;17.30;80.98
65997;BME280;52765;52.258;21.052;2022-10-16T08:33:53;100969.78;;;17.53;80.95
65997;BME280;52765;52.258;21.052;2022-10-16T08:36:19;100944.53;;;17.44;80.88
65997;BME280;52765;52.258;21.052;2022-10-16T08:38:50;100984.06;;;17.70;80.81
65997;BME280;52765;52.258;21.052;2022-10-16T08:44:28;100987.13;;;17.82;80.40
65997;BME280;52765;52.258;21.052;2022-10-16T08:50:14;100975.88;;;18.00;79.64
65997;BME280;52765;52.258;21.052;2022-10-16T08:52:43;100980.50;;;17.99;78.55
65997;BME280;52765;52.258;21.052;2022-10-16T08:55:37;100992.41;;;18.13;78.81
65997;BME280;52765;52.258;21.052;2022-10-16T08:58:14;100988.66;;;18.14;78.20
65997;BME280;52765;52.258;21.052;2022-10-16T09:00:41;100979.97;;;18.25;78.35
65997;BME280;52765;52.258;21.052;2022-10-16T09:03:22;100991.13;;;18.45;77.78
65997;BME280;52765;52.258;21.052;2022-10-16T09:22:41;100983.72;;;19.04;74.72
65997;BME280;52765;52.258;21.052;2022-10-16T09:25:15;100980.03;;;19.18;74.31
65997;BME280;52765;52.258;21.052;2022-10-16T09:27:40;100983.72;;;19.32;74.04
65997;BME280;52765;52.258;21.052;2022-10-16T09:30:14;100969.25;;;19.32;73.79
65997;BME280;52765;52.258;21.052;2022-10-16T09:32:42;100976.59;;;19.38;73.01
65997;BME280;52765;52.258;21.052;2022-10-16T09:35:35;100970.50;;;19.36;71.86
65997;BME280;52765;52.258;21.052;2022-10-16T09:38:02;100951.53;;;19.28;71.99
65997;BME280;52765;52.258;21.052;2022-10-16T09:40:36;100957.19;;;19.26;72.04
65997;BME280;52765;52.258;21.052;2022-10-16T09:43:24;100985.03;;;19.43;72.01
65997;BME280;52765;52.258;21.052;2022-10-16T09:45:56;100981.03;;;19.39;72.47
65997;BME280;52765;52.258;21.052;2022-10-16T09:48:22;100985.53;;;19.25;72.82
65997;BME280;52765;52.258;21.052;2022-10-16T09:51:14;100983.97;;;19.37;72.96
65997;BME280;52765;52.258;21.052;2022-10-16T09:53:47;100988.59;;;19.37;73.58
65997;BME280;52765;52.258;21.052;2022-10-16T09:56:27;100986.66;;;19.31;73.06
65997;BME280;52765;52.258;21.052;2022-10-16T09:58:57;100978.38;;;19.17;73.00
65997;BME280;52765;52.258;21.052;2022-10-16T10:01:39;100982.50;;;19.41;72.58
65997;BME280;52765;52.258;21.052;2022-10-16T10:04:06;100974.31;;;19.41;73.37
65997;BME280;52765;52.258;21.052;2022-10-16T10:06:34;100982.16;;;19.51;73.19
65997;BME280;52765;52.258;21.052;2022-10-16T10:09:25;100977.81;;;19.57;72.07
65997;BME280;52765;52.258;21.052;2022-10-16T10:22:45;100980.53;;;19.57;72.42
65997;BME280;52765;52.258;21.052;2022-10-16T10:38:30;100949.88;;;20.10;69.47
65997;BME280;52765;52.258;21.052;2022-10-16T10:43:57;100969.94;;;20.30;69.61
65997;BME280;52765;52.258;21.052;2022-10-16T10:46:42;100972.28;;;20.33;69.20
65997;BME280;52765;52.258;21.052;2022-10-16T10:58:10;100951.78;;;20.16;69.56
65997;BME280;52765;52.258;21.052;2022-10-16T11:11:16;100961.22;;;20.75;66.52
65997;BME280;52765;52.258;21.052;2022-10-16T11:14:50;100956.16;;;20.72;66.10
65997;BME280;52765;52.258;21.052;2022-10-16T11:17:04;100947.03;;;20.58;66.73
65997;BME280;52765;52.258;21.052;2022-10-16T11:19:40;100954.81;;;20.55;66.93
65997;BME280;52765;52.258;21.052;2022-10-16T11:27:49;100964.28;;;20.39;67.05
65997;BME280;52765;52.258;21.052;2022-10-16T11:30:22;100956.31;;;20.44;67.46
65997;BME280;52765;52.258;21.052;2022-10-16T11:35:44;100976.28;;;20.44;67.62
65997;BME280;52765;52.258;21.052;2022-10-16T11:38:42;100981.56;;;20.46;67.07
65997;BME280;52765;52.258;21.052;2022-10-16T11:46:37;100977.75;;;20.33;68.03
65997;BME280;52765;52.258;21.052;2022-10-16T11:49:18;100958.41;;;20.35;67.45
65997;BME280;52765;52.258;21.052;2022-10-16T11:57:16;100948.78;;;20.99;65.08
65997;BME280;52765;52.258;21.052;2022-10-16T11:59:51;100944.13;;;21.13;64.73
65997;BME280;52765;52.258;21.052;2022-10-16T12:05:35;100958.50;;;21.09;64.78
65997;BME280;52765;52.258;21.052;2022-10-16T12:08:13;100968.59;;;20.95;65.29
65997;BME280;52765;52.258;21.052;2022-10-16T12:10:41;100958.50;;;20.82;65.40
65997;BME280;52765;52.258;21.052;2022-10-16T12:13:35;100958.69;;;20.80;66.04
65997;BME280;52765;52.258;21.052;2022-10-16T12:18:44;100966.03;;;20.80;66.08
65997;BME280;52765;52.258;21.052;2022-10-16T12:21:13;100972.38;;;20.87;65.52
65997;BME280;52765;52.258;21.052;2022-10-16T12:23:51;100972.19;;;20.88;65.59
65997;BME280;52765;52.258;21.052;2022-10-16T12:26:29;100981.22;;;20.96;65.39
65997;BME280;52765;52.258;21.052;2022-10-16T12:29:12;100968.56;;;20.68;65.56
65997;BME280;52765;52.258;21.052;2022-10-16T12:31:45;100971.97;;;20.70;65.39
65997;BME280;52765;52.258;21.052;2022-10-16T12:34:37;100988.59;;;20.75;66.43
65997;BME280;52765;52.258;21.052;2022-10-16T12:37:26;100955.91;;;20.60;66.81
65997;BME280;52765;52.258;21.052;2022-10-16T12:39:54;100965.19;;;20.66;66.89
65997;BME280;52765;52.258;21.052;2022-10-16T12:44:54;100964.13;;;20.54;66.40
65997;BME280;52765;52.258;21.052;2022-10-16T12:47:38;100964.56;;;20.64;66.62
65997;BME280;52765;52.258;21.052;2022-10-16T12:52:49;100978.00;;;20.59;67.05
65997;BME280;52765;52.258;21.052;2022-10-16T12:55:16;100968.50;;;20.55;67.28
65997;BME280;52765;52.258;21.052;2022-10-16T13:00:47;101010.41;;;20.42;67.63
65997;BME280;52765;52.258;21.052;2022-10-16T13:03:23;101006.13;;;20.26;68.63
65997;BME280;52765;52.258;21.052;2022-10-16T13:22:00;101000.44;;;19.79;73.20
65997;BME280;52765;52.258;21.052;2022-10-16T13:30:17;100986.06;;;19.35;75.52
65997;BME280;52765;52.258;21.052;2022-10-16T13:32:48;101006.47;;;19.39;75.82
65997;BME280;52765;52.258;21.052;2022-10-16T13:35:23;100997.78;;;19.29;76.40
65997;BME280;52765;52.258;21.052;2022-10-16T13:38:02;101025.19;;;19.42;76.67
65997;BME280;52765;52.258;21.052;2022-10-16T13:40:35;100984.22;;;19.14;77.59
65997;BME280;52765;52.258;21.052;2022-10-16T13:43:03;100997.09;;;19.20;77.67
65997;BME280;52765;52.258;21.052;2022-10-16T13:45:28;101023.41;;;19.28;77.91
65997;BME280;52765;52.258;21.052;2022-10-16T13:48:05;101001.88;;;19.18;78.16
65997;BME280;52765;52.258;21.052;2022-10-16T13:50:32;101001.19;;;19.10;78.54
65997;BME280;52765;52.258;21.052;2022-10-16T13:53:05;101015.59;;;19.25;78.63
65997;BME280;52765;52.258;21.052;2022-10-16T13:55:31;101025.28;;;19.28;78.68
65997;BME280;52765;52.258;21.052;2022-10-16T13:58:14;100989.28;;;19.17;78.83
65997;BME280;52765;52.258;21.052;2022-10-16T14:00:41;100992.25;;;19.22;78.68
65997;BME280;52765;52.258;21.052;2022-10-16T14:03:19;100970.41;;;19.22;78.26
65997;BME280;52765;52.258;21.052;2022-10-16T14:05:52;101008.41;;;19.46;78.64
65997;BME280;52765;52.258;21.052;2022-10-16T14:08:18;101016.22;;;19.49;78.41
65997;BME280;52765;52.258;21.052;2022-10-16T14:10:48;101011.00;;;19.54;78.64
65997;BME280;52765;52.258;21.052;2022-10-16T14:13:19;100994.09;;;19.44;78.34
65997;BME280;52765;52.258;21.052;2022-10-16T14:15:49;101023.00;;;19.59;78.66
65997;BME280;52765;52.258;21.052;2022-10-16T14:18:25;101008.25;;;19.54;78.28
65997;BME280;52765;52.258;21.052;2022-10-16T14:20:52;101007.34;;;19.47;78.70
65997;BME280;52765;52.258;21.052;2022-10-16T14:23:29;100986.09;;;19.42;78.89
65997;BME280;52765;52.258;21.052;2022-10-16T14:28:34;101033.03;;;19.52;79.26
65997;BME280;52765;52.258;21.052;2022-10-16T14:31:01;101009.38;;;19.38;79.05
65997;BME280;52765;52.258;21.052;2022-10-16T14:36:12;101032.84;;;19.54;79.33
65997;BME280;52765;52.258;21.052;2022-10-16T14:39:03;101036.41;;;19.54;79.29
65997;BME280;52765;52.258;21.052;2022-10-16T14:41:41;101026.47;;;19.47;79.33
65997;BME280;52765;52.258;21.052;2022-10-16T14:44:11;101020.56;;;19.43;79.69
65997;BME280;52765;52.258;21.052;2022-10-16T14:46:38;101041.00;;;19.47;80.10
65997;BME280;52765;52.258;21.052;2022-10-16T14:51:38;101024.56;;;19.40;79.97
65997;BME280;52765;52.258;21.052;2022-10-16T14:54:14;101026.41;;;19.40;80.29
65997;BME280;52765;52.258;21.052;2022-10-16T14:56:58;101043.53;;;19.49;80.09
65997;BME280;52765;52.258;21.052;2022-10-16T14:59:39;101050.88;;;19.48;80.57
65997;BME280;52765;52.258;21.052;2022-10-16T15:02:25;101051.53;;;19.50;80.72
65997;BME280;52765;52.258;21.052;2022-10-16T15:04:52;101025.97;;;19.36;80.81
65997;BME280;52765;52.258;21.052;2022-10-16T15:07:18;101027.22;;;19.34;80.84
65997;BME280;52765;52.258;21.052;2022-10-16T15:09:43;101010.75;;;19.20;80.86
65997;BME280;52765;52.258;21.052;2022-10-16T15:12:11;101026.31;;;19.27;81.56
65997;BME280;52765;52.258;21.052;2022-10-16T15:14:37;101026.75;;;19.23;81.65
65997;BME280;52765;52.258;21.052;2022-10-16T15:17:02;101037.19;;;19.20;81.31
65997;BME280;52765;52.258;21.052;2022-10-16T15:19:28;101042.66;;;19.20;82.04